Lake Benton, Minnesota
Current Conditions -  °F | °C
As of 4:14 AM on Saturday 22 Nov 2014 (Local Time) from KPQN Reporting Station
Haze Haze  
Wind Chill: 20°   Ceiling: Unl
Heat Index: 28°   Visibility: 5mi
Dew Point: 27°   Wind: 8mph
Humidity: 93%   Direction: 190°S
Pressure: 29.77"   Gusts: NA
Location:  44.26°N, 96.29°W
Report Text: KPQN 221014Z AUTO 19007KT 5SM BR CLR M02/M03 A2977 RMK AO2
Loading
Personal Weather Stations






























Interactive Weather Map New forecast layout! Learn more

10-Day Weather Forecast

Advertisements
Track Severe Weather on mobile